sensor_id;sensor_type;location;lat;lon;timestamp;P1;durP1;ratioP1;P2;durP2;ratioP2
13891;SDS011;7016;48.172;8.058;2023-02-28T00:00:27;5.40;;;3.10;;
13891;SDS011;7016;48.172;8.058;2023-02-28T00:02:53;6.65;;;3.00;;
13891;SDS011;7016;48.172;8.058;2023-02-28T00:05:20;6.38;;;3.25;;
13891;SDS011;7016;48.172;8.058;2023-02-28T00:07:48;11.23;;;3.55;;
13891;SDS011;7016;48.172;8.058;2023-02-28T00:10:14;6.35;;;3.20;;
13891;SDS011;7016;48.172;8.058;2023-02-28T00:12:52;7.10;;;3.72;;
13891;SDS011;7016;48.172;8.058;2023-02-28T00:15:19;6.65;;;3.00;;
13891;SDS011;7016;48.172;8.058;2023-02-28T00:17:46;6.45;;;3.65;;
13891;SDS011;7016;48.172;8.058;2023-02-28T00:20:12;6.13;;;3.15;;
13891;SDS011;7016;48.172;8.058;2023-02-28T00:22:39;5.03;;;2.47;;
13891;SDS011;7016;48.172;8.058;2023-02-28T00:25:07;7.13;;;3.53;;
13891;SDS011;7016;48.172;8.058;2023-02-28T00:27:34;5.82;;;2.88;;
13891;SDS011;7016;48.172;8.058;2023-02-28T00:30:00;6.20;;;3.17;;
13891;SDS011;7016;48.172;8.058;2023-02-28T00:32:26;9.02;;;4.13;;
13891;SDS011;7016;48.172;8.058;2023-02-28T00:34:52;8.18;;;3.20;;
13891;SDS011;7016;48.172;8.058;2023-02-28T00:37:18;5.82;;;3.20;;
13891;SDS011;7016;48.172;8.058;2023-02-28T00:39:43;4.55;;;3.05;;
13891;SDS011;7016;48.172;8.058;2023-02-28T00:42:09;7.03;;;3.65;;
13891;SDS011;7016;48.172;8.058;2023-02-28T00:44:35;6.68;;;3.30;;
13891;SDS011;7016;48.172;8.058;2023-02-28T00:47:00;5.35;;;3.05;;
13891;SDS011;7016;48.172;8.058;2023-02-28T00:49:26;6.43;;;3.50;;
13891;SDS011;7016;48.172;8.058;2023-02-28T00:51:53;8.45;;;3.30;;
13891;SDS011;7016;48.172;8.058;2023-02-28T00:54:20;6.30;;;3.20;;
13891;SDS011;7016;48.172;8.058;2023-02-28T00:56:46;4.32;;;3.05;;
13891;SDS011;7016;48.172;8.058;2023-02-28T00:59:13;6.43;;;3.22;;
13891;SDS011;7016;48.172;8.058;2023-02-28T01:01:39;7.32;;;3.50;;
13891;SDS011;7016;48.172;8.058;2023-02-28T01:04:06;4.57;;;2.92;;
13891;SDS011;7016;48.172;8.058;2023-02-28T01:06:31;4.80;;;2.88;;
13891;SDS011;7016;48.172;8.058;2023-02-28T01:08:58;7.15;;;3.50;;
13891;SDS011;7016;48.172;8.058;2023-02-28T01:11:24;5.82;;;3.63;;
13891;SDS011;7016;48.172;8.058;2023-02-28T01:13:50;6.03;;;3.20;;
13891;SDS011;7016;48.172;8.058;2023-02-28T01:16:16;7.18;;;3.58;;
13891;SDS011;7016;48.172;8.058;2023-02-28T01:18:42;7.53;;;3.60;;
13891;SDS011;7016;48.172;8.058;2023-02-28T01:21:09;7.35;;;3.40;;
13891;SDS011;7016;48.172;8.058;2023-02-28T01:23:37;7.80;;;3.60;;
13891;SDS011;7016;48.172;8.058;2023-02-28T01:26:07;4.97;;;3.25;;
13891;SDS011;7016;48.172;8.058;2023-02-28T01:28:38;9.23;;;3.58;;
13891;SDS011;7016;48.172;8.058;2023-02-28T01:31:04;8.73;;;3.70;;
13891;SDS011;7016;48.172;8.058;2023-02-28T01:33:30;7.75;;;3.08;;
13891;SDS011;7016;48.172;8.058;2023-02-28T01:36:00;5.55;;;3.13;;
13891;SDS011;7016;48.172;8.058;2023-02-28T01:40:56;6.30;;;3.97;;
13891;SDS011;7016;48.172;8.058;2023-02-28T01:43:23;9.18;;;3.65;;
13891;SDS011;7016;48.172;8.058;2023-02-28T01:45:52;5.07;;;3.47;;
13891;SDS011;7016;48.172;8.058;2023-02-28T01:48:19;5.10;;;2.85;;
13891;SDS011;7016;48.172;8.058;2023-02-28T01:50:58;7.43;;;3.45;;
13891;SDS011;7016;48.172;8.058;2023-02-28T01:53:32;9.43;;;4.63;;
13891;SDS011;7016;48.172;8.058;2023-02-28T01:56:03;10.25;;;4.90;;
13891;SDS011;7016;48.172;8.058;2023-02-28T01:58:31;7.00;;;3.97;;
13891;SDS011;7016;48.172;8.058;2023-02-28T02:00:57;6.93;;;3.30;;
13891;SDS011;7016;48.172;8.058;2023-02-28T02:03:23;9.38;;;3.85;;
13891;SDS011;7016;48.172;8.058;2023-02-28T02:05:49;7.85;;;3.63;;
13891;SDS011;7016;48.172;8.058;2023-02-28T02:08:19;7.30;;;3.50;;
13891;SDS011;7016;48.172;8.058;2023-02-28T02:10:50;9.63;;;3.37;;
13891;SDS011;7016;48.172;8.058;2023-02-28T02:35:48;8.88;;;3.33;;
13891;SDS011;7016;48.172;8.058;2023-02-28T02:43:32;6.95;;;3.33;;
13891;SDS011;7016;48.172;8.058;2023-02-28T02:46:12;5.88;;;3.22;;
13891;SDS011;7016;48.172;8.058;2023-02-28T02:48:44;7.55;;;3.50;;
13891;SDS011;7016;48.172;8.058;2023-02-28T02:51:13;5.28;;;3.45;;
13891;SDS011;7016;48.172;8.058;2023-02-28T02:53:44;5.35;;;3.35;;
13891;SDS011;7016;48.172;8.058;2023-02-28T02:56:14;5.50;;;3.10;;
13891;SDS011;7016;48.172;8.058;2023-02-28T02:58:46;5.65;;;3.40;;
13891;SDS011;7016;48.172;8.058;2023-02-28T03:01:15;4.38;;;3.20;;
13891;SDS011;7016;48.172;8.058;2023-02-28T03:03:56;7.32;;;3.75;;
13891;SDS011;7016;48.172;8.058;2023-02-28T03:06:24;5.97;;;3.42;;
13891;SDS011;7016;48.172;8.058;2023-02-28T03:08:50;3.45;;;2.40;;
13891;SDS011;7016;48.172;8.058;2023-02-28T03:11:16;6.82;;;3.45;;
13891;SDS011;7016;48.172;8.058;2023-02-28T03:19:04;6.32;;;3.55;;
13891;SDS011;7016;48.172;8.058;2023-02-28T03:24:45;6.45;;;3.60;;
13891;SDS011;7016;48.172;8.058;2023-02-28T03:27:25;5.80;;;3.60;;
13891;SDS011;7016;48.172;8.058;2023-02-28T03:30:05;6.55;;;3.53;;
13891;SDS011;7016;48.172;8.058;2023-02-28T03:32:43;6.60;;;3.75;;
13891;SDS011;7016;48.172;8.058;2023-02-28T03:35:26;9.00;;;3.33;;
13891;SDS011;7016;48.172;8.058;2023-02-28T03:38:09;6.45;;;3.72;;
13891;SDS011;7016;48.172;8.058;2023-02-28T03:40:47;5.88;;;3.88;;
13891;SDS011;7016;48.172;8.058;2023-02-28T03:43:18;7.43;;;3.97;;
13891;SDS011;7016;48.172;8.058;2023-02-28T03:45:48;8.00;;;3.72;;
13891;SDS011;7016;48.172;8.058;2023-02-28T03:48:39;9.93;;;3.70;;
13891;SDS011;7016;48.172;8.058;2023-02-28T03:51:08;5.03;;;3.50;;
13891;SDS011;7016;48.172;8.058;2023-02-28T03:53:39;5.80;;;3.38;;
13891;SDS011;7016;48.172;8.058;2023-02-28T03:58:49;6.22;;;4.00;;
13891;SDS011;7016;48.172;8.058;2023-02-28T04:01:47;10.65;;;4.15;;
13891;SDS011;7016;48.172;8.058;2023-02-28T04:04:14;7.47;;;3.95;;
13891;SDS011;7016;48.172;8.058;2023-02-28T04:06:41;6.13;;;3.80;;
13891;SDS011;7016;48.172;8.058;2023-02-28T04:09:08;5.05;;;3.05;;
13891;SDS011;7016;48.172;8.058;2023-02-28T04:11:45;7.15;;;3.70;;
13891;SDS011;7016;48.172;8.058;2023-02-28T04:14:20;7.32;;;3.72;;
13891;SDS011;7016;48.172;8.058;2023-02-28T04:16:46;9.05;;;3.63;;
13891;SDS011;7016;48.172;8.058;2023-02-28T04:19:13;6.40;;;3.55;;
13891;SDS011;7016;48.172;8.058;2023-02-28T04:21:41;5.30;;;3.28;;
13891;SDS011;7016;48.172;8.058;2023-02-28T04:24:12;7.28;;;3.80;;
13891;SDS011;7016;48.172;8.058;2023-02-28T04:26:40;6.47;;;4.28;;
13891;SDS011;7016;48.172;8.058;2023-02-28T04:29:08;6.80;;;4.10;;
13891;SDS011;7016;48.172;8.058;2023-02-28T04:31:35;7.10;;;3.72;;
13891;SDS011;7016;48.172;8.058;2023-02-28T04:34:01;8.85;;;4.38;;
13891;SDS011;7016;48.172;8.058;2023-02-28T04:36:27;7.80;;;3.97;;
13891;SDS011;7016;48.172;8.058;2023-02-28T04:38:53;33.78;;;13.45;;
13891;SDS011;7016;48.172;8.058;2023-02-28T04:41:19;7.53;;;4.40;;
13891;SDS011;7016;48.172;8.058;2023-02-28T04:43:45;7.43;;;4.32;;
13891;SDS011;7016;48.172;8.058;2023-02-28T04:46:11;9.30;;;4.57;;
13891;SDS011;7016;48.172;8.058;2023-02-28T04:48:37;8.80;;;4.57;;
13891;SDS011;7016;48.172;8.058;2023-02-28T04:51:05;10.38;;;4.57;;
13891;SDS011;7016;48.172;8.058;2023-02-28T04:53:33;9.18;;;4.70;;
13891;SDS011;7016;48.172;8.058;2023-02-28T04:56:00;6.55;;;4.40;;
13891;SDS011;7016;48.172;8.058;2023-02-28T04:58:26;8.15;;;4.47;;
13891;SDS011;7016;48.172;8.058;2023-02-28T05:00:53;5.93;;;4.20;;
13891;SDS011;7016;48.172;8.058;2023-02-28T05:03:19;7.85;;;4.47;;
13891;SDS011;7016;48.172;8.058;2023-02-28T05:05:47;7.18;;;4.68;;
13891;SDS011;7016;48.172;8.058;2023-02-28T05:08:13;9.23;;;4.40;;
13891;SDS011;7016;48.172;8.058;2023-02-28T05:10:39;8.75;;;4.45;;
13891;SDS011;7016;48.172;8.058;2023-02-28T05:13:04;7.65;;;4.57;;
13891;SDS011;7016;48.172;8.058;2023-02-28T05:15:30;8.23;;;4.82;;
13891;SDS011;7016;48.172;8.058;2023-02-28T05:17:56;7.45;;;4.30;;
13891;SDS011;7016;48.172;8.058;2023-02-28T05:20:22;7.78;;;4.38;;
13891;SDS011;7016;48.172;8.058;2023-02-28T05:22:47;7.38;;;4.63;;
13891;SDS011;7016;48.172;8.058;2023-02-28T05:25:19;10.77;;;4.70;;
13891;SDS011;7016;48.172;8.058;2023-02-28T05:27:47;12.90;;;4.80;;
13891;SDS011;7016;48.172;8.058;2023-02-28T05:30:14;9.35;;;4.90;;
13891;SDS011;7016;48.172;8.058;2023-02-28T05:32:40;8.70;;;4.82;;
13891;SDS011;7016;48.172;8.058;2023-02-28T05:35:08;7.20;;;4.72;;
13891;SDS011;7016;48.172;8.058;2023-02-28T05:37:36;9.57;;;4.72;;
13891;SDS011;7016;48.172;8.058;2023-02-28T05:40:02;7.70;;;4.75;;
13891;SDS011;7016;48.172;8.058;2023-02-28T05:42:35;8.38;;;5.00;;
13891;SDS011;7016;48.172;8.058;2023-02-28T05:45:01;7.20;;;4.90;;
13891;SDS011;7016;48.172;8.058;2023-02-28T05:47:27;7.05;;;4.75;;
13891;SDS011;7016;48.172;8.058;2023-02-28T05:49:52;9.60;;;5.43;;
13891;SDS011;7016;48.172;8.058;2023-02-28T05:52:19;11.50;;;5.55;;
13891;SDS011;7016;48.172;8.058;2023-02-28T05:54:46;9.73;;;5.00;;
13891;SDS011;7016;48.172;8.058;2023-02-28T05:57:12;7.53;;;5.07;;
13891;SDS011;7016;48.172;8.058;2023-02-28T05:59:37;8.18;;;4.97;;
13891;SDS011;7016;48.172;8.058;2023-02-28T06:02:05;7.07;;;5.00;;
13891;SDS011;7016;48.172;8.058;2023-02-28T06:04:41;8.77;;;5.40;;
13891;SDS011;7016;48.172;8.058;2023-02-28T06:07:07;9.85;;;5.15;;
13891;SDS011;7016;48.172;8.058;2023-02-28T06:09:34;12.05;;;5.50;;
13891;SDS011;7016;48.172;8.058;2023-02-28T06:12:01;6.60;;;4.65;;
13891;SDS011;7016;48.172;8.058;2023-02-28T06:14:29;8.63;;;5.25;;
13891;SDS011;7016;48.172;8.058;2023-02-28T06:16:56;11.02;;;5.63;;
13891;SDS011;7016;48.172;8.058;2023-02-28T06:19:22;7.88;;;5.15;;
13891;SDS011;7016;48.172;8.058;2023-02-28T06:21:51;9.30;;;5.53;;
13891;SDS011;7016;48.172;8.058;2023-02-28T06:24:19;8.80;;;5.82;;
13891;SDS011;7016;48.172;8.058;2023-02-28T06:26:45;10.43;;;5.47;;
13891;SDS011;7016;48.172;8.058;2023-02-28T06:29:10;11.98;;;5.70;;
13891;SDS011;7016;48.172;8.058;2023-02-28T06:31:36;9.80;;;5.70;;
13891;SDS011;7016;48.172;8.058;2023-02-28T06:34:03;9.30;;;5.72;;
13891;SDS011;7016;48.172;8.058;2023-02-28T06:36:29;7.95;;;5.20;;
13891;SDS011;7016;48.172;8.058;2023-02-28T06:38:55;12.95;;;5.68;;
13891;SDS011;7016;48.172;8.058;2023-02-28T06:41:24;11.43;;;6.25;;
13891;SDS011;7016;48.172;8.058;2023-02-28T06:43:51;7.28;;;5.30;;
13891;SDS011;7016;48.172;8.058;2023-02-28T06:46:17;13.52;;;5.72;;
13891;SDS011;7016;48.172;8.058;2023-02-28T06:48:43;8.88;;;5.80;;
13891;SDS011;7016;48.172;8.058;2023-02-28T06:51:17;9.77;;;6.15;;
13891;SDS011;7016;48.172;8.058;2023-02-28T06:53:47;9.88;;;6.07;;
13891;SDS011;7016;48.172;8.058;2023-02-28T06:56:13;9.68;;;6.20;;
13891;SDS011;7016;48.172;8.058;2023-02-28T06:58:40;9.55;;;6.20;;
13891;SDS011;7016;48.172;8.058;2023-02-28T07:01:06;8.70;;;5.57;;
13891;SDS011;7016;48.172;8.058;2023-02-28T07:03:34;8.82;;;5.32;;
13891;SDS011;7016;48.172;8.058;2023-02-28T07:06:00;9.70;;;5.97;;
13891;SDS011;7016;48.172;8.058;2023-02-28T07:08:27;8.52;;;5.60;;
13891;SDS011;7016;48.172;8.058;2023-02-28T07:10:57;10.45;;;6.03;;
13891;SDS011;7016;48.172;8.058;2023-02-28T07:13:23;9.52;;;5.60;;
13891;SDS011;7016;48.172;8.058;2023-02-28T07:15:52;12.80;;;7.47;;
13891;SDS011;7016;48.172;8.058;2023-02-28T07:18:19;16.30;;;8.25;;
13891;SDS011;7016;48.172;8.058;2023-02-28T07:20:45;8.55;;;5.97;;
13891;SDS011;7016;48.172;8.058;2023-02-28T07:23:11;8.93;;;5.00;;
13891;SDS011;7016;48.172;8.058;2023-02-28T07:25:36;7.93;;;5.70;;
13891;SDS011;7016;48.172;8.058;2023-02-28T07:28:02;11.75;;;6.32;;
13891;SDS011;7016;48.172;8.058;2023-02-28T07:30:28;13.35;;;7.25;;
13891;SDS011;7016;48.172;8.058;2023-02-28T07:32:53;9.38;;;5.75;;
13891;SDS011;7016;48.172;8.058;2023-02-28T07:35:21;9.32;;;6.07;;
13891;SDS011;7016;48.172;8.058;2023-02-28T07:37:47;11.52;;;6.18;;
13891;SDS011;7016;48.172;8.058;2023-02-28T07:40:12;10.93;;;6.20;;
13891;SDS011;7016;48.172;8.058;2023-02-28T07:42:39;8.52;;;6.43;;
13891;SDS011;7016;48.172;8.058;2023-02-28T07:45:09;9.40;;;6.13;;
13891;SDS011;7016;48.172;8.058;2023-02-28T07:47:57;11.55;;;6.40;;
13891;SDS011;7016;48.172;8.058;2023-02-28T07:50:23;13.77;;;6.70;;
13891;SDS011;7016;48.172;8.058;2023-02-28T07:52:49;10.10;;;6.95;;
13891;SDS011;7016;48.172;8.058;2023-02-28T07:55:14;12.18;;;6.78;;
13891;SDS011;7016;48.172;8.058;2023-02-28T07:57:41;9.85;;;6.88;;
13891;SDS011;7016;48.172;8.058;2023-02-28T08:00:09;15.20;;;7.20;;
13891;SDS011;7016;48.172;8.058;2023-02-28T08:02:38;11.13;;;6.45;;
13891;SDS011;7016;48.172;8.058;2023-02-28T08:05:04;10.93;;;7.32;;
13891;SDS011;7016;48.172;8.058;2023-02-28T08:07:30;11.77;;;7.13;;
13891;SDS011;7016;48.172;8.058;2023-02-28T08:09:57;12.15;;;7.32;;
13891;SDS011;7016;48.172;8.058;2023-02-28T08:12:23;15.68;;;7.63;;
13891;SDS011;7016;48.172;8.058;2023-02-28T08:14:48;11.98;;;7.30;;
13891;SDS011;7016;48.172;8.058;2023-02-28T08:17:14;13.27;;;7.18;;
13891;SDS011;7016;48.172;8.058;2023-02-28T08:19:40;16.27;;;7.55;;
13891;SDS011;7016;48.172;8.058;2023-02-28T08:22:05;11.27;;;7.63;;
13891;SDS011;7016;48.172;8.058;2023-02-28T08:24:31;11.85;;;7.15;;
13891;SDS011;7016;48.172;8.058;2023-02-28T08:26:56;17.35;;;8.07;;
13891;SDS011;7016;48.172;8.058;2023-02-28T08:29:22;11.90;;;7.53;;
13891;SDS011;7016;48.172;8.058;2023-02-28T08:31:48;15.70;;;7.95;;
13891;SDS011;7016;48.172;8.058;2023-02-28T08:34:14;12.40;;;8.15;;
13891;SDS011;7016;48.172;8.058;2023-02-28T08:36:41;10.57;;;7.22;;
13891;SDS011;7016;48.172;8.058;2023-02-28T08:39:09;14.80;;;7.68;;
13891;SDS011;7016;48.172;8.058;2023-02-28T08:41:34;14.40;;;8.55;;
13891;SDS011;7016;48.172;8.058;2023-02-28T08:44:00;13.63;;;8.52;;
13891;SDS011;7016;48.172;8.058;2023-02-28T08:46:26;11.52;;;7.55;;
13891;SDS011;7016;48.172;8.058;2023-02-28T08:48:55;12.20;;;7.50;;
13891;SDS011;7016;48.172;8.058;2023-02-28T08:51:25;12.73;;;8.48;;
13891;SDS011;7016;48.172;8.058;2023-02-28T08:53:55;14.98;;;9.43;;
13891;SDS011;7016;48.172;8.058;2023-02-28T08:56:23;13.23;;;8.18;;
13891;SDS011;7016;48.172;8.058;2023-02-28T08:58:49;12.65;;;8.27;;
13891;SDS011;7016;48.172;8.058;2023-02-28T09:03:43;15.95;;;9.05;;
13891;SDS011;7016;48.172;8.058;2023-02-28T09:06:11;14.48;;;8.65;;
13891;SDS011;7016;48.172;8.058;2023-02-28T09:08:37;18.17;;;10.15;;
13891;SDS011;7016;48.172;8.058;2023-02-28T09:11:03;15.77;;;9.38;;
13891;SDS011;7016;48.172;8.058;2023-02-28T09:13:29;16.52;;;8.63;;
13891;SDS011;7016;48.172;8.058;2023-02-28T09:15:57;13.55;;;8.75;;
13891;SDS011;7016;48.172;8.058;2023-02-28T09:18:24;15.55;;;8.77;;
13891;SDS011;7016;48.172;8.058;2023-02-28T09:20:51;15.95;;;8.48;;
13891;SDS011;7016;48.172;8.058;2023-02-28T09:23:17;15.52;;;9.25;;
13891;SDS011;7016;48.172;8.058;2023-02-28T09:25:46;14.35;;;8.40;;
13891;SDS011;7016;48.172;8.058;2023-02-28T09:28:13;13.43;;;9.05;;
13891;SDS011;7016;48.172;8.058;2023-02-28T09:30:41;14.63;;;8.98;;
13891;SDS011;7016;48.172;8.058;2023-02-28T09:33:06;21.42;;;9.18;;
13891;SDS011;7016;48.172;8.058;2023-02-28T09:35:32;13.57;;;8.63;;
13891;SDS011;7016;48.172;8.058;2023-02-28T09:37:58;12.77;;;8.68;;
13891;SDS011;7016;48.172;8.058;2023-02-28T09:40:24;16.05;;;9.23;;
13891;SDS011;7016;48.172;8.058;2023-02-28T09:42:52;13.02;;;8.52;;
13891;SDS011;7016;48.172;8.058;2023-02-28T09:48:20;14.18;;;8.95;;
13891;SDS011;7016;48.172;8.058;2023-02-28T09:51:00;18.35;;;9.65;;
13891;SDS011;7016;48.172;8.058;2023-02-28T09:53:31;15.68;;;9.15;;
13891;SDS011;7016;48.172;8.058;2023-02-28T09:56:13;15.30;;;9.18;;
13891;SDS011;7016;48.172;8.058;2023-02-28T09:58:55;14.90;;;8.90;;
13891;SDS011;7016;48.172;8.058;2023-02-28T10:01:27;15.85;;;8.75;;
13891;SDS011;7016;48.172;8.058;2023-02-28T10:04:16;16.80;;;10.20;;
13891;SDS011;7016;48.172;8.058;2023-02-28T10:06:50;15.57;;;9.82;;
13891;SDS011;7016;48.172;8.058;2023-02-28T10:09:17;19.52;;;10.27;;
13891;SDS011;7016;48.172;8.058;2023-02-28T10:11:47;15.60;;;9.50;;
13891;SDS011;7016;48.172;8.058;2023-02-28T10:14:16;16.52;;;9.90;;
13891;SDS011;7016;48.172;8.058;2023-02-28T10:17:14;17.65;;;9.55;;
13891;SDS011;7016;48.172;8.058;2023-02-28T10:22:51;15.43;;;9.45;;
13891;SDS011;7016;48.172;8.058;2023-02-28T10:25:23;12.90;;;9.25;;
13891;SDS011;7016;48.172;8.058;2023-02-28T10:27:54;16.42;;;9.85;;
13891;SDS011;7016;48.172;8.058;2023-02-28T10:30:25;16.08;;;9.32;;
13891;SDS011;7016;48.172;8.058;2023-02-28T10:32:52;16.50;;;9.65;;
13891;SDS011;7016;48.172;8.058;2023-02-28T10:35:21;15.77;;;9.30;;
13891;SDS011;7016;48.172;8.058;2023-02-28T10:37:50;13.68;;;9.05;;
13891;SDS011;7016;48.172;8.058;2023-02-28T10:45:27;17.63;;;10.52;;
13891;SDS011;7016;48.172;8.058;2023-02-28T10:48:03;15.13;;;10.07;;
13891;SDS011;7016;48.172;8.058;2023-02-28T10:50:35;17.63;;;10.77;;
13891;SDS011;7016;48.172;8.058;2023-02-28T10:56:01;18.73;;;10.38;;
13891;SDS011;7016;48.172;8.058;2023-02-28T11:01:23;17.35;;;11.13;;
13891;SDS011;7016;48.172;8.058;2023-02-28T11:04:02;17.98;;;10.82;;
13891;SDS011;7016;48.172;8.058;2023-02-28T11:06:32;20.80;;;12.15;;
13891;SDS011;7016;48.172;8.058;2023-02-28T11:09:06;16.48;;;9.93;;
13891;SDS011;7016;48.172;8.058;2023-02-28T11:11:52;16.33;;;10.52;;
13891;SDS011;7016;48.172;8.058;2023-02-28T11:14:22;15.68;;;10.43;;
13891;SDS011;7016;48.172;8.058;2023-02-28T11:16:51;16.48;;;10.15;;
13891;SDS011;7016;48.172;8.058;2023-02-28T11:19:20;16.65;;;11.02;;
13891;SDS011;7016;48.172;8.058;2023-02-28T11:21:53;18.73;;;11.20;;
13891;SDS011;7016;48.172;8.058;2023-02-28T11:26:55;16.15;;;10.88;;
13891;SDS011;7016;48.172;8.058;2023-02-28T11:29:26;18.27;;;10.18;;
13891;SDS011;7016;48.172;8.058;2023-02-28T11:34:40;15.88;;;10.88;;
13891;SDS011;7016;48.172;8.058;2023-02-28T11:37:17;19.90;;;11.15;;
13891;SDS011;7016;48.172;8.058;2023-02-28T11:39:44;18.17;;;11.43;;
13891;SDS011;7016;48.172;8.058;2023-02-28T11:42:15;16.40;;;10.55;;
13891;SDS011;7016;48.172;8.058;2023-02-28T11:48:27;18.38;;;10.82;;
13891;SDS011;7016;48.172;8.058;2023-02-28T11:54:01;17.10;;;10.50;;
13891;SDS011;7016;48.172;8.058;2023-02-28T11:56:32;16.00;;;9.93;;
13891;SDS011;7016;48.172;8.058;2023-02-28T11:59:15;15.23;;;10.75;;
13891;SDS011;7016;48.172;8.058;2023-02-28T12:10:36;17.45;;;11.13;;
13891;SDS011;7016;48.172;8.058;2023-02-28T12:22:22;16.23;;;10.55;;
13891;SDS011;7016;48.172;8.058;2023-02-28T12:31:59;17.58;;;11.20;;
13891;SDS011;7016;48.172;8.058;2023-02-28T12:34:35;18.80;;;10.90;;
13891;SDS011;7016;48.172;8.058;2023-02-28T12:39:36;17.33;;;10.70;;
13891;SDS011;7016;48.172;8.058;2023-02-28T12:42:10;18.50;;;11.48;;
13891;SDS011;7016;48.172;8.058;2023-02-28T12:44:54;38.42;;;11.27;;
13891;SDS011;7016;48.172;8.058;2023-02-28T12:47:24;17.42;;;11.32;;
13891;SDS011;7016;48.172;8.058;2023-02-28T12:49:58;17.40;;;11.32;;
13891;SDS011;7016;48.172;8.058;2023-02-28T12:55:39;20.42;;;11.30;;
13891;SDS011;7016;48.172;8.058;2023-02-28T12:58:27;17.05;;;11.82;;
13891;SDS011;7016;48.172;8.058;2023-02-28T13:06:32;20.60;;;11.10;;
13891;SDS011;7016;48.172;8.058;2023-02-28T13:09:21;15.85;;;10.52;;
13891;SDS011;7016;48.172;8.058;2023-02-28T13:11:47;18.75;;;11.60;;
13891;SDS011;7016;48.172;8.058;2023-02-28T13:14:18;16.50;;;10.52;;
13891;SDS011;7016;48.172;8.058;2023-02-28T13:19:16;17.92;;;11.90;;
13891;SDS011;7016;48.172;8.058;2023-02-28T13:21:43;18.05;;;11.57;;
13891;SDS011;7016;48.172;8.058;2023-02-28T13:24:10;23.45;;;13.75;;
13891;SDS011;7016;48.172;8.058;2023-02-28T13:34:30;19.83;;;11.65;;
13891;SDS011;7016;48.172;8.058;2023-02-28T13:37:32;22.33;;;13.50;;
13891;SDS011;7016;48.172;8.058;2023-02-28T13:42:36;18.25;;;11.75;;
13891;SDS011;7016;48.172;8.058;2023-02-28T13:45:25;21.65;;;12.02;;
13891;SDS011;7016;48.172;8.058;2023-02-28T13:50:27;17.55;;;11.35;;
13891;SDS011;7016;48.172;8.058;2023-02-28T13:55:59;19.38;;;11.57;;
13891;SDS011;7016;48.172;8.058;2023-02-28T13:58:48;17.67;;;11.27;;
13891;SDS011;7016;48.172;8.058;2023-02-28T14:01:34;16.48;;;10.48;;
13891;SDS011;7016;48.172;8.058;2023-02-28T14:06:37;17.33;;;11.00;;
13891;SDS011;7016;48.172;8.058;2023-02-28T14:11:38;18.05;;;11.02;;
13891;SDS011;7016;48.172;8.058;2023-02-28T14:14:05;14.45;;;10.20;;
13891;SDS011;7016;48.172;8.058;2023-02-28T14:16:45;19.50;;;11.80;;
13891;SDS011;7016;48.172;8.058;2023-02-28T14:19:21;16.38;;;11.32;;
13891;SDS011;7016;48.172;8.058;2023-02-28T14:27:57;16.02;;;10.50;;
13891;SDS011;7016;48.172;8.058;2023-02-28T14:30:40;18.55;;;11.80;;
13891;SDS011;7016;48.172;8.058;2023-02-28T14:41:45;16.50;;;10.87;;
13891;SDS011;7016;48.172;8.058;2023-02-28T14:44:21;17.38;;;10.85;;
13891;SDS011;7016;48.172;8.058;2023-02-28T14:54:34;17.08;;;11.02;;
13891;SDS011;7016;48.172;8.058;2023-02-28T14:57:02;20.75;;;11.00;;
13891;SDS011;7016;48.172;8.058;2023-02-28T14:59:32;15.20;;;11.00;;
13891;SDS011;7016;48.172;8.058;2023-02-28T15:02:15;17.23;;;10.63;;
13891;SDS011;7016;48.172;8.058;2023-02-28T15:05:02;17.67;;;10.80;;
13891;SDS011;7016;48.172;8.058;2023-02-28T15:07:38;18.45;;;11.10;;
13891;SDS011;7016;48.172;8.058;2023-02-28T15:13:06;17.85;;;11.25;;
13891;SDS011;7016;48.172;8.058;2023-02-28T15:19:05;19.17;;;11.73;;
13891;SDS011;7016;48.172;8.058;2023-02-28T15:21:13;17.23;;;10.75;;
13891;SDS011;7016;48.172;8.058;2023-02-28T15:23:54;16.13;;;10.70;;
13891;SDS011;7016;48.172;8.058;2023-02-28T15:26:33;17.23;;;11.45;;
13891;SDS011;7016;48.172;8.058;2023-02-28T15:29:10;18.42;;;11.52;;
13891;SDS011;7016;48.172;8.058;2023-02-28T15:31:46;19.67;;;12.10;;
13891;SDS011;7016;48.172;8.058;2023-02-28T15:37:29;14.43;;;9.63;;
13891;SDS011;7016;48.172;8.058;2023-02-28T15:39:53;15.50;;;10.60;;
13891;SDS011;7016;48.172;8.058;2023-02-28T15:42:21;16.33;;;10.52;;
13891;SDS011;7016;48.172;8.058;2023-02-28T15:44:48;17.33;;;10.10;;
13891;SDS011;7016;48.172;8.058;2023-02-28T15:49:45;15.75;;;10.32;;
13891;SDS011;7016;48.172;8.058;2023-02-28T15:52:18;16.55;;;10.45;;
13891;SDS011;7016;48.172;8.058;2023-02-28T15:55:09;14.88;;;10.70;;
13891;SDS011;7016;48.172;8.058;2023-02-28T15:57:42;15.27;;;10.43;;
13891;SDS011;7016;48.172;8.058;2023-02-28T16:00:12;16.55;;;10.65;;
13891;SDS011;7016;48.172;8.058;2023-02-28T16:02:43;20.70;;;11.23;;
13891;SDS011;7016;48.172;8.058;2023-02-28T16:07:36;19.58;;;10.68;;
13891;SDS011;7016;48.172;8.058;2023-02-28T16:10:06;15.63;;;9.40;;
13891;SDS011;7016;48.172;8.058;2023-02-28T16:12:34;18.73;;;11.15;;
13891;SDS011;7016;48.172;8.058;2023-02-28T16:15:03;16.02;;;10.95;;
13891;SDS011;7016;48.172;8.058;2023-02-28T16:17:34;16.17;;;10.95;;
13891;SDS011;7016;48.172;8.058;2023-02-28T16:20:05;21.73;;;11.82;;
13891;SDS011;7016;48.172;8.058;2023-02-28T16:22:39;16.98;;;9.95;;
13891;SDS011;7016;48.172;8.058;2023-02-28T16:25:04;20.17;;;10.60;;
13891;SDS011;7016;48.172;8.058;2023-02-28T16:27:34;16.00;;;10.38;;
13891;SDS011;7016;48.172;8.058;2023-02-28T16:30:03;16.17;;;10.48;;
13891;SDS011;7016;48.172;8.058;2023-02-28T16:32:30;16.95;;;10.38;;
13891;SDS011;7016;48.172;8.058;2023-02-28T16:34:59;16.02;;;10.10;;
13891;SDS011;7016;48.172;8.058;2023-02-28T16:37:26;15.77;;;11.00;;
13891;SDS011;7016;48.172;8.058;2023-02-28T16:39:52;16.00;;;10.68;;
13891;SDS011;7016;48.172;8.058;2023-02-28T16:42:20;17.38;;;10.32;;
13891;SDS011;7016;48.172;8.058;2023-02-28T16:44:52;23.67;;;12.07;;
13891;SDS011;7016;48.172;8.058;2023-02-28T16:47:19;17.95;;;11.30;;
13891;SDS011;7016;48.172;8.058;2023-02-28T16:49:45;23.48;;;12.02;;
13891;SDS011;7016;48.172;8.058;2023-02-28T16:52:12;20.17;;;10.77;;
13891;SDS011;7016;48.172;8.058;2023-02-28T16:54:39;18.92;;;11.38;;
13891;SDS011;7016;48.172;8.058;2023-02-28T16:57:06;17.52;;;10.88;;
13891;SDS011;7016;48.172;8.058;2023-02-28T16:59:41;15.43;;;10.23;;
13891;SDS011;7016;48.172;8.058;2023-02-28T17:02:10;17.45;;;10.57;;
13891;SDS011;7016;48.172;8.058;2023-02-28T17:04:39;19.48;;;10.85;;
13891;SDS011;7016;48.172;8.058;2023-02-28T17:07:04;15.95;;;10.60;;
13891;SDS011;7016;48.172;8.058;2023-02-28T17:09:34;17.35;;;11.45;;
13891;SDS011;7016;48.172;8.058;2023-02-28T17:12:00;19.27;;;11.82;;
13891;SDS011;7016;48.172;8.058;2023-02-28T17:14:25;17.60;;;12.88;;
13891;SDS011;7016;48.172;8.058;2023-02-28T17:16:52;24.13;;;14.50;;
13891;SDS011;7016;48.172;8.058;2023-02-28T17:19:17;25.45;;;13.68;;
13891;SDS011;7016;48.172;8.058;2023-02-28T17:21:44;30.70;;;18.48;;
13891;SDS011;7016;48.172;8.058;2023-02-28T17:24:10;24.30;;;13.38;;
13891;SDS011;7016;48.172;8.058;2023-02-28T17:26:39;22.85;;;13.70;;
13891;SDS011;7016;48.172;8.058;2023-02-28T17:29:27;28.67;;;17.17;;
13891;SDS011;7016;48.172;8.058;2023-02-28T17:31:52;19.70;;;12.52;;
13891;SDS011;7016;48.172;8.058;2023-02-28T17:34:18;22.85;;;13.20;;
13891;SDS011;7016;48.172;8.058;2023-02-28T17:36:45;26.80;;;15.63;;
13891;SDS011;7016;48.172;8.058;2023-02-28T17:39:12;19.10;;;12.15;;
13891;SDS011;7016;48.172;8.058;2023-02-28T17:41:39;21.40;;;12.02;;
13891;SDS011;7016;48.172;8.058;2023-02-28T17:44:07;19.63;;;11.80;;
13891;SDS011;7016;48.172;8.058;2023-02-28T17:46:33;18.20;;;12.75;;
13891;SDS011;7016;48.172;8.058;2023-02-28T17:48:59;23.90;;;11.88;;
13891;SDS011;7016;48.172;8.058;2023-02-28T17:51:26;18.38;;;11.48;;